Time;durP1;ratioP1;P1;durP2;ratioP2;P2;SDS_P1;SDS_P2;PMS_P1;PMS_P2;Temp;Humidity;BMP_temperature;BMP_pressure;BME280_temperature;BME280_humidity;BME280_pressure;Samples;Min_cycle;Max_cycle;Signal;HPM_P1;HPM_P2
2023/08/13 00:03:52;;;;;;;14.20;10.98;;;20.30;99.90;;;21.04;100.00;98213.00;10478497;28;20232;-68
2023/08/13 00:08:55;;;;;;;13.75;10.32;;;20.30;99.90;;;21.02;100.00;98199.97;10481327;28;20228;-68
2023/08/13 00:13:59;;;;;;;15.13;10.73;;;20.30;99.90;;;20.86;100.00;98205.66;10482672;28;20220;-68
2023/08/13 00:19:03;;;;;;;13.10;9.85;;;20.20;99.90;;;20.92;100.00;98198.03;10478104;28;20223;-67
2023/08/13 00:24:07;;;;;;;12.35;10.27;;;20.20;99.90;;;20.82;100.00;98201.25;10482203;28;20224;-68
2023/08/13 00:29:11;;;;;;;9.77;8.82;;;20.10;99.90;;;20.89;100.00;98203.16;10479699;28;20746;-68
2023/08/13 00:34:15;;;;;;;11.40;10.38;;;20.20;99.90;;;20.86;100.00;98197.88;10480992;28;20821;-68
2023/08/13 00:39:18;;;;;;;12.50;10.57;;;20.20;99.90;;;20.93;100.00;98202.38;10478847;28;20224;-68
2023/08/13 00:44:22;;;;;;;12.55;11.25;;;20.20;99.90;;;20.98;100.00;98203.34;10474837;28;20703;-68
2023/08/13 00:49:26;;;;;;;15.35;11.25;;;20.30;99.90;;;20.99;100.00;98206.81;10474564;28;20231;-67
2023/08/13 00:54:29;;;;;;;13.77;12.02;;;20.20;99.90;;;20.95;100.00;98218.00;10479151;28;20224;-68
2023/08/13 00:59:35;;;;;;;13.98;11.80;;;20.20;99.90;;;20.95;100.00;98208.50;10479585;28;20240;-67
2023/08/13 01:04:38;;;;;;;15.27;12.30;;;20.30;99.90;;;20.93;100.00;98210.16;10477907;28;20769;-68
2023/08/13 01:09:49;;;;;;;12.23;11.05;;;20.20;99.90;;;20.95;100.00;98213.69;10481805;28;20228;-68
2023/08/13 01:15:03;;;;;;;14.45;12.20;;;20.20;99.90;;;21.05;100.00;98215.63;10476183;28;20227;-67
2023/08/13 01:20:08;;;;;;;16.70;13.98;;;20.30;99.90;;;21.02;100.00;98214.69;10478739;28;20217;-67
2023/08/13 01:25:14;;;;;;;15.50;13.10;;;20.30;99.90;;;21.03;100.00;98206.94;10467405;28;20737;-66
2023/08/13 01:30:24;;;;;;;13.77;12.07;;;20.30;99.90;;;21.02;100.00;98212.97;10477852;28;20232;-67
2023/08/13 01:35:29;;;;;;;14.38;11.50;;;20.30;99.90;;;20.97;100.00;98213.69;10480744;28;20240;-67
2023/08/13 01:40:33;;;;;;;13.55;10.45;;;20.20;99.90;;;20.91;100.00;98206.66;10481697;28;20228;-67
2023/08/13 01:45:36;;;;;;;10.95;9.80;;;20.20;99.90;;;20.85;100.00;98206.53;10483755;28;20243;-67
2023/08/13 01:50:40;;;;;;;13.35;10.75;;;20.10;99.90;;;20.89;100.00;98208.34;10479721;28;20232;-67
2023/08/13 01:55:44;;;;;;;14.40;11.23;;;20.20;99.90;;;20.84;100.00;98205.66;10480407;28;20224;-67
2023/08/13 02:00:47;;;;;;;16.65;12.23;;;20.20;99.90;;;20.88;100.00;98216.97;10479696;28;20224;-68
2023/08/13 02:05:50;;;;;;;14.77;12.02;;;20.20;99.90;;;20.86;100.00;98213.47;10479210;28;20317;-68
2023/08/13 02:10:55;;;;;;;15.02;13.35;;;20.20;99.90;;;20.92;100.00;98208.44;10480474;28;20220;-67
2023/08/13 02:16:03;;;;;;;12.27;11.07;;;20.20;99.90;;;20.95;100.00;98192.91;10483511;28;20518;-67
2023/08/13 02:21:06;;;;;;;16.60;12.75;;;20.20;99.90;;;20.95;100.00;98198.09;10488083;28;20228;-67
2023/08/13 02:26:13;;;;;;;16.38;13.45;;;20.20;99.90;;;20.95;100.00;98205.88;10488529;28;20635;-67
2023/08/13 02:31:16;;;;;;;17.38;15.52;;;20.20;99.90;;;20.94;100.00;98206.72;10487537;28;20252;-67
2023/08/13 02:36:19;;;;;;;20.63;16.98;;;20.20;99.90;;;20.96;100.00;98207.63;10484853;28;20225;-67
2023/08/13 02:41:24;;;;;;;27.13;17.08;;;20.20;99.90;;;20.90;100.00;98200.56;10486724;28;20224;-67
2023/08/13 02:46:27;;;;;;;15.88;14.27;;;20.10;99.90;;;20.88;100.00;98202.25;10479064;28;20782;-68
2023/08/13 02:51:31;;;;;;;15.55;13.88;;;20.10;99.90;;;20.86;100.00;98192.66;10487055;28;20719;-67
2023/08/13 02:56:35;;;;;;;23.77;15.75;;;20.10;99.90;;;20.82;100.00;98196.06;10483589;28;20232;-67
2023/08/13 03:01:39;;;;;;;17.48;14.10;;;20.10;99.90;;;20.76;100.00;98185.53;10486286;28;20224;-67
2023/08/13 03:06:42;;;;;;;13.82;12.48;;;20.00;99.90;;;20.80;100.00;98187.34;10482915;28;20220;-67
2023/08/13 03:11:47;;;;;;;18.42;15.35;;;20.00;99.90;;;20.74;100.00;98192.41;10485688;28;20611;-67
2023/08/13 03:16:50;;;;;;;16.33;14.30;;;20.00;99.90;;;20.66;100.00;98193.13;10483541;28;20266;-67
2023/08/13 03:21:53;;;;;;;14.98;13.18;;;20.00;99.90;;;20.62;100.00;98175.69;10485018;28;20228;-67
2023/08/13 03:26:57;;;;;;;14.65;13.15;;;19.90;99.90;;;20.62;100.00;98183.50;10483301;28;20224;-68
2023/08/13 03:32:00;;;;;;;15.75;12.10;;;19.90;99.90;;;20.70;100.00;98186.28;10485093;28;20242;-67
2023/08/13 03:37:03;;;;;;;14.63;13.13;;;19.90;99.90;;;20.63;100.00;98174.88;10482328;28;20232;-67
2023/08/13 03:42:08;;;;;;;19.15;14.05;;;19.90;99.90;;;20.64;100.00;98187.00;10486167;28;20614;-68
2023/08/13 03:47:11;;;;;;;16.92;14.23;;;19.90;99.90;;;20.57;100.00;98179.91;10482642;28;20232;-68
2023/08/13 03:52:14;;;;;;;18.85;14.93;;;19.90;99.90;;;20.61;100.00;98181.75;10482625;28;20247;-67
2023/08/13 03:57:19;;;;;;;14.48;13.07;;;19.90;99.90;;;20.57;100.00;98174.72;10481066;28;21411;-68
2023/08/13 04:02:22;;;;;;;12.75;11.55;;;19.80;99.90;;;20.54;100.00;98169.47;10481591;28;20240;-68
2023/08/13 04:07:25;;;;;;;12.50;11.50;;;19.80;99.90;;;20.54;100.00;98185.03;10481551;28;20315;-67
2023/08/13 04:12:30;;;;;;;11.88;10.88;;;19.80;99.90;;;20.54;100.00;98189.34;10481791;28;20737;-67
2023/08/13 04:22:36;;;;;;;12.00;11.00;;;19.80;99.90;;;20.63;100.00;98195.66;10323111;28;20231;-69
2023/08/13 04:27:40;;;;;;;12.30;11.15;;;19.90;99.90;;;20.60;100.00;98187.81;10325072;28;20223;-68
2023/08/13 04:32:54;;;;;;;12.63;11.45;;;19.80;99.90;;;20.62;100.00;98199.09;10321302;28;20231;-68
2023/08/13 04:37:57;;;;;;;16.65;14.95;;;19.90;99.90;;;20.56;100.00;98187.69;10315680;28;20686;-68
2023/08/13 04:43:01;;;;;;;13.77;12.57;;;19.80;99.90;;;20.51;100.00;98177.16;10316756;28;20594;-68
2023/08/13 04:48:05;;;;;;;14.93;13.52;;;19.80;99.90;;;20.59;100.00;98183.44;10318301;28;20239;-67
2023/08/13 04:53:09;;;;;;;13.75;12.45;;;19.80;99.90;;;20.64;100.00;98189.63;10316389;28;20237;-67
2023/08/13 04:58:13;;;;;;;15.95;14.30;;;19.90;99.90;;;20.60;100.00;98173.91;10318854;28;20242;-68
2023/08/13 05:03:17;;;;;;;16.35;14.68;;;19.80;99.90;;;20.68;100.00;98168.03;10318081;28;20334;-68
2023/08/13 05:08:20;;;;;;;17.30;15.65;;;19.90;99.90;;;20.81;100.00;98158.81;10319367;28;20237;-68
2023/08/13 05:13:24;;;;;;;16.42;14.48;;;20.00;99.90;;;20.81;100.00;98173.53;10317831;28;20651;-67
2023/08/13 05:18:28;;;;;;;12.98;11.77;;;20.10;99.90;;;20.93;100.00;98171.19;10318246;28;20235;-69
2023/08/13 05:23:31;;;;;;;12.07;10.98;;;20.20;99.90;;;21.02;100.00;98178.28;10319324;28;20234;-68
2023/08/13 05:28:35;;;;;;;11.88;10.88;;;20.20;99.90;;;20.97;100.00;98196.38;10318563;28;20306;-68
2023/08/13 05:33:39;;;;;;;12.27;11.15;;;20.20;99.90;;;20.96;100.00;98215.44;10320397;28;20231;-68
2023/08/13 05:38:42;;;;;;;13.25;12.10;;;20.20;99.90;;;20.99;100.00;98204.22;10318747;28;20222;-69
2023/08/13 05:43:46;;;;;;;13.38;12.07;;;20.20;99.90;;;21.02;100.00;98215.56;10315562;28;20227;-69
2023/08/13 05:48:50;;;;;;;12.70;11.60;;;20.20;99.90;;;21.01;100.00;98212.94;10316655;28;20231;-68
2023/08/13 05:53:53;;;;;;;12.82;11.65;;;20.20;99.90;;;20.98;100.00;98213.75;10319520;28;20223;-69
2023/08/13 05:58:57;;;;;;;13.98;12.57;;;20.30;99.90;;;20.94;100.00;98217.09;10322784;28;20234;-68
2023/08/13 06:04:02;;;;;;;14.93;13.43;;;20.20;99.90;;;20.80;100.00;98218.53;10318200;28;20223;-69
2023/08/13 06:09:06;;;;;;;11.30;10.32;;;20.20;99.90;;;20.77;100.00;98210.66;10335181;28;20234;-69
2023/08/13 06:14:11;;;;;;;12.93;11.82;;;20.20;99.90;;;20.66;100.00;98200.94;10315519;28;20246;-68
2023/08/13 06:19:14;;;;;;;11.45;10.35;;;20.10;99.90;;;20.52;100.00;98197.09;10322650;28;20231;-68
2023/08/13 06:24:17;;;;;;;11.93;10.88;;;20.10;99.90;;;20.59;100.00;98209.41;10322577;28;20219;-68
2023/08/13 06:29:21;;;;;;;10.25;9.35;;;20.10;99.90;;;20.74;100.00;98203.66;10322429;28;20226;-68
2023/08/13 06:34:25;;;;;;;11.20;10.30;;;20.20;99.90;;;20.79;100.00;98211.59;10320219;28;20227;-68
2023/08/13 06:39:28;;;;;;;11.30;10.40;;;20.30;99.90;;;20.84;100.00;98209.97;10318879;28;20231;-68
2023/08/13 06:44:33;;;;;;;9.98;9.18;;;20.30;99.90;;;20.82;100.00;98215.13;10311829;28;20227;-68
2023/08/13 06:49:36;;;;;;;11.70;10.80;;;20.30;99.90;;;20.82;100.00;98216.84;10314918;28;20269;-68
2023/08/13 06:54:39;;;;;;;9.60;8.80;;;20.30;99.90;;;20.81;100.00;98220.31;10311681;28;20227;-69
2023/08/13 06:59:43;;;;;;;10.70;9.82;;;20.30;99.90;;;20.87;100.00;98234.28;10317108;28;20231;-67
2023/08/13 07:04:47;;;;;;;10.75;9.82;;;20.40;99.90;;;20.81;100.00;98228.09;10312311;28;20773;-68
2023/08/13 07:09:50;;;;;;;10.48;9.65;;;20.40;99.90;;;20.71;100.00;98224.38;10318135;28;20402;-68
2023/08/13 07:14:55;;;;;;;8.65;7.95;;;20.20;99.90;;;20.64;100.00;98225.97;10309136;28;20617;-68
2023/08/13 07:19:58;;;;;;;8.80;8.15;;;20.20;99.90;;;20.76;100.00;98243.56;10306488;28;20666;-68
2023/08/13 07:25:02;;;;;;;9.07;8.38;;;20.30;99.90;;;20.78;100.00;98249.69;10313198;28;20243;-68
2023/08/13 07:30:10;;;;;;;7.75;7.20;;;20.30;99.90;;;20.77;100.00;98239.25;10316521;28;20238;-67
2023/08/13 07:35:14;;;;;;;9.93;9.13;;;20.30;99.90;;;20.77;100.00;98228.84;10308779;28;20321;-68
2023/08/13 07:40:18;;;;;;;9.38;8.65;;;20.30;99.90;;;20.77;100.00;98213.25;10311329;28;20764;-68
2023/08/13 07:45:23;;;;;;;10.75;10.00;;;20.30;99.90;;;20.70;100.00;98220.91;10316024;28;20282;-67
2023/08/13 07:50:28;;;;;;;9.45;8.75;;;20.30;99.90;;;20.87;100.00;98223.91;10318348;28;20237;-66
2023/08/13 07:55:31;;;;;;;9.05;8.45;;;20.40;99.90;;;21.07;100.00;98232.13;10318713;28;20301;-66
2023/08/13 08:00:35;;;;;;;10.65;9.60;;;20.60;99.90;;;21.14;100.00;98231.41;10309336;28;20242;-67
2023/08/13 08:05:42;;;;;;;8.90;8.23;;;20.60;99.90;;;21.22;100.00;98228.09;10316026;28;20219;-67
2023/08/13 08:10:45;;;;;;;8.77;8.18;;;20.70;99.90;;;21.12;100.00;98237.44;10315348;28;20223;-67
2023/08/13 08:15:49;;;;;;;8.35;7.75;;;20.70;99.90;;;21.18;100.00;98226.31;10317198;28;20702;-68
2023/08/13 08:20:53;;;;;;;9.23;8.52;;;20.70;99.90;;;21.18;100.00;98218.50;10308473;28;20274;-68
2023/08/13 08:25:56;;;;;;;9.45;8.75;;;20.70;99.90;;;21.34;100.00;98202.34;10308700;28;20231;-68
2023/08/13 08:31:00;;;;;;;8.93;8.23;;;20.90;99.90;;;21.49;100.00;98207.00;10302291;28;20501;-69
2023/08/13 08:36:04;;;;;;;8.70;8.00;;;21.00;99.90;;;21.67;100.00;98193.47;10305081;28;20342;-71
2023/08/13 08:41:08;;;;;;;8.40;7.80;;;21.10;99.90;;;21.62;100.00;98197.72;10309869;28;20238;-70
2023/08/13 08:46:15;;;;;;;8.75;8.05;;;21.20;99.90;;;21.97;100.00;98186.19;10310322;28;20235;-70
2023/08/13 08:51:20;;;;;;;7.53;6.93;;;21.50;99.90;;;22.24;100.00;98174.53;10309738;28;20231;-70
2023/08/13 08:56:25;;;;;;;6.40;5.90;;;21.80;99.90;;;22.60;100.00;98184.63;10306429;28;20230;-70
2023/08/13 09:01:30;;;;;;;5.15;4.70;;;22.10;99.90;;;22.80;100.00;98171.00;10301845;28;20246;-70
2023/08/13 09:07:00;;;;;;;5.18;4.68;;;22.30;99.90;;;23.35;100.00;98167.41;10300975;28;20222;-69
2023/08/13 09:12:04;;;;;;;5.60;5.20;;;23.00;99.90;;;23.70;100.00;98166.03;10307562;28;20230;-69
2023/08/13 09:17:12;;;;;;;5.55;5.05;;;23.30;99.90;;;23.55;100.00;98171.94;10296991;28;20608;-68
2023/08/13 09:22:17;;;;;;;5.63;5.13;;;23.20;99.90;;;23.58;100.00;98149.38;10300184;28;20253;-69
2023/08/13 09:27:21;;;;;;;5.80;5.40;;;23.00;99.90;;;23.44;100.00;98155.31;10292666;28;20242;-69
2023/08/13 09:32:28;;;;;;;6.13;5.63;;;22.90;99.90;;;23.70;100.00;98150.34;10294959;28;20235;-68
2023/08/13 09:37:31;;;;;;;5.63;5.18;;;23.30;99.90;;;23.76;100.00;98138.25;10293540;28;20711;-69
2023/08/13 09:42:34;;;;;;;6.30;5.75;;;23.40;99.90;;;24.32;100.00;98146.53;10302424;28;20222;-69
2023/08/13 09:47:41;;;;;;;5.75;5.25;;;24.00;99.90;;;24.64;100.00;98141.56;10303508;28;20234;-68
2023/08/13 09:52:47;;;;;;;5.68;5.15;;;24.20;99.90;;;24.76;100.00;98139.00;10306902;28;20321;-68
2023/08/13 09:57:54;;;;;;;5.30;4.90;;;24.40;99.90;;;25.00;100.00;98135.63;10303280;28;20230;-68
2023/08/13 10:02:59;;;;;;;5.65;5.22;;;24.60;99.90;;;25.00;100.00;98139.97;10303661;28;20223;-69
2023/08/13 10:08:03;;;;;;;5.57;5.18;;;24.50;99.90;;;25.05;100.00;98131.28;10297168;28;20237;-69
2023/08/13 10:13:06;;;;;;;5.50;5.00;;;24.60;99.90;;;25.33;100.00;98137.53;10305686;28;20229;-69
2023/08/13 10:18:11;;;;;;;5.38;4.88;;;24.90;99.90;;;25.50;95.88;98141.94;10300386;28;20243;-69
2023/08/13 10:23:15;;;;;;;5.43;4.93;;;25.00;99.90;;;25.61;100.00;98133.22;10409153;22;20220;-81
2023/08/13 10:28:23;;;;;;;5.80;5.30;;;25.10;99.90;;;25.78;99.01;98116.63;10443734;28;20224;-80
2023/08/13 10:33:30;;;;;;;5.45;5.03;;;25.10;99.90;;;25.82;99.42;98118.41;10443864;28;20231;-82
2023/08/13 10:38:34;;;;;;;5.45;5.00;;;25.20;99.90;;;25.84;96.53;98111.47;10435646;28;20227;-83
2023/08/13 10:43:37;;;;;;;5.28;4.78;;;25.30;99.90;;;26.10;96.74;98100.06;10440082;28;20322;-82
2023/08/13 10:48:44;;;;;;;5.25;4.75;;;25.60;99.90;;;26.42;93.82;98095.66;10446948;28;20225;-80
2023/08/13 10:53:49;;;;;;;4.85;4.38;;;25.90;99.90;;;26.40;89.54;98093.91;10449931;28;20717;-81
2023/08/13 10:58:53;;;;;;;4.75;4.45;;;26.00;99.90;;;26.34;90.45;98086.94;10442984;28;20292;-81
2023/08/13 11:03:57;;;;;;;3.78;3.50;;;25.90;99.90;;;26.44;83.75;98093.03;10452114;28;20228;-80
2023/08/13 11:09:02;;;;;;;4.68;3.40;;;25.90;99.90;;;26.75;80.97;98093.84;10446829;28;20220;-79
2023/08/13 11:14:05;;;;;;;3.97;3.67;;;26.10;99.90;;;26.83;79.92;98085.94;10451674;28;20221;-80
2023/08/13 11:19:11;;;;;;;5.38;3.75;;;26.20;99.90;;;27.11;80.09;98086.69;10450542;28;20287;-81
2023/08/13 11:24:15;;;;;;;4.57;4.13;;;26.40;99.90;;;27.26;79.54;98085.75;10435556;28;20240;-81
2023/08/13 11:29:22;;;;;;;3.95;3.65;;;26.50;99.90;;;27.44;76.44;98082.16;10451603;28;20240;-81
2023/08/13 11:34:27;;;;;;;4.20;3.90;;;26.70;99.90;;;27.48;77.39;98078.63;10440896;28;20228;-79
2023/08/13 11:39:33;;;;;;;4.70;4.30;;;26.60;99.90;;;27.57;77.35;98081.19;10456060;28;20714;-81
2023/08/13 11:44:37;;;;;;;3.92;3.65;;;26.70;99.90;;;27.78;78.56;98070.50;10452039;28;20501;-80
2023/08/13 11:49:45;;;;;;;4.70;4.30;;;26.90;99.90;;;27.93;76.59;98058.16;10450903;28;20312;-78
2023/08/13 11:54:48;;;;;;;3.63;3.33;;;27.10;99.90;;;27.99;77.12;98064.22;10446245;28;20607;-78
2023/08/13 11:59:52;;;;;;;4.15;3.85;;;27.10;99.90;;;28.00;76.85;98052.81;10439597;28;20532;-78
2023/08/13 12:04:56;;;;;;;4.15;3.70;;;27.10;99.90;;;28.13;76.46;98056.22;10432826;28;20225;-77
2023/08/13 12:10:00;;;;;;;4.07;3.67;;;27.10;99.90;;;28.05;75.80;98047.53;10436631;28;20224;-78
2023/08/13 12:15:04;;;;;;;6.90;4.78;;;27.20;99.90;;;28.02;76.59;98039.69;10438809;28;20256;-79
2023/08/13 12:20:11;;;;;;;5.18;4.32;;;27.30;99.90;;;27.82;75.04;98047.75;10452645;28;20220;-79
2023/08/13 12:25:15;;;;;;;6.38;4.80;;;27.10;99.90;;;28.13;76.15;98048.34;10451989;28;23127;-79
2023/08/13 12:30:19;;;;;;;7.70;5.40;;;27.40;99.90;;;28.31;74.85;98044.63;10441707;28;20255;-80
2023/08/13 12:35:24;;;;;;;6.65;4.82;;;27.40;99.90;;;28.43;74.48;98036.63;10455361;28;20237;-79
2023/08/13 12:40:27;;;;;;;5.68;4.30;;;27.50;99.90;;;28.45;72.99;98031.38;10454159;28;20510;-79
2023/08/13 12:45:30;;;;;;;4.95;4.32;;;27.80;99.90;;;28.58;73.03;98043.47;10452170;28;20252;-78
2023/08/13 12:50:35;;;;;;;8.02;4.63;;;27.90;99.90;;;28.98;72.50;98027.16;10458253;28;20220;-78
2023/08/13 12:55:38;;;;;;;4.72;4.07;;;28.10;99.90;;;28.84;72.19;98034.38;10458623;28;20311;-79
2023/08/13 13:00:42;;;;;;;4.38;3.72;;;28.00;99.90;;;28.64;72.17;98026.75;10447437;28;20320;-79
2023/08/13 13:05:47;;;;;;;4.22;3.83;;;27.80;99.90;;;28.27;72.05;98038.53;10459256;28;20349;-83
2023/08/13 13:10:51;;;;;;;5.40;4.07;;;27.50;99.90;;;28.30;72.46;98032.34;10457840;28;20239;-82
2023/08/13 13:15:54;;;;;;;5.00;4.30;;;27.50;99.90;;;28.42;71.28;98047.19;10458836;28;20698;-80
2023/08/13 13:20:59;;;;;;;4.30;3.55;;;27.50;99.90;;;28.54;70.54;98057.56;10447672;28;20221;-79
2023/08/13 13:26:03;;;;;;;3.78;3.47;;;27.70;99.90;;;28.55;71.22;98050.53;10447605;28;20409;-79
2023/08/13 13:31:06;;;;;;;4.50;3.85;;;27.70;99.90;;;28.54;72.58;98039.16;10452751;28;20216;-79
2023/08/13 13:36:11;;;;;;;4.18;3.60;;;27.80;99.90;;;28.65;72.38;98039.88;10448926;28;20231;-78
2023/08/13 13:41:14;;;;;;;3.65;3.35;;;27.70;99.90;;;28.68;70.80;98053.00;10452250;28;20220;-79
2023/08/13 13:46:18;;;;;;;3.85;3.45;;;27.70;99.90;;;28.29;72.19;98042.00;10449809;28;20231;-80
2023/08/13 13:51:23;;;;;;;3.92;3.63;;;27.30;99.90;;;28.34;72.87;98041.09;10454614;28;20274;-79
2023/08/13 13:56:26;;;;;;;5.07;4.00;;;27.50;99.90;;;28.50;73.85;98029.53;10450685;28;20243;-80
2023/08/13 14:01:30;;;;;;;4.50;4.10;;;27.70;99.90;;;28.74;73.07;98023.97;10456487;28;20665;-78
2023/08/13 14:06:34;;;;;;;4.13;3.83;;;27.90;99.90;;;28.44;71.70;98008.56;10465715;28;20284;-79
2023/08/13 14:11:39;;;;;;;4.10;3.72;;;27.60;99.90;;;28.25;73.69;98002.63;10464987;28;20257;-78
2023/08/13 14:16:42;;;;;;;4.60;4.20;;;27.50;99.90;;;28.06;75.28;98012.47;10462753;28;20225;-79
2023/08/13 14:21:48;;;;;;;4.43;4.03;;;27.30;99.90;;;28.06;75.72;98015.09;10455395;28;20658;-78
2023/08/13 14:26:52;;;;;;;4.95;4.00;;;27.50;99.90;;;27.89;79.20;98019.66;10452476;28;20226;-80
2023/08/13 14:31:55;;;;;;;4.38;3.97;;;27.40;99.90;;;27.94;79.04;98023.97;10466042;28;20252;-81
2023/08/13 14:37:00;;;;;;;3.72;3.40;;;27.10;99.90;;;27.67;79.15;98019.84;10461841;28;20220;-82
2023/08/13 14:42:06;;;;;;;3.95;3.55;;;26.90;99.90;;;27.39;78.96;98020.03;10459978;28;20217;-80
2023/08/13 14:47:09;;;;;;;3.08;2.88;;;26.60;99.90;;;27.31;77.94;98027.09;10457485;28;20883;-79
2023/08/13 14:52:14;;;;;;;3.28;3.03;;;26.70;99.90;;;27.00;80.45;98026.38;10460064;28;20266;-79
2023/08/13 14:57:18;;;;;;;3.30;3.10;;;26.30;99.90;;;27.02;80.60;98018.53;10468977;28;20228;-78
2023/08/13 15:02:21;;;;;;;3.70;3.42;;;26.30;99.90;;;26.81;81.53;98004.63;10466422;28;20228;-80
2023/08/13 15:07:26;;;;;;;3.47;3.17;;;26.10;99.90;;;26.63;82.54;97996.84;10460713;28;20243;-77
2023/08/13 15:12:29;;;;;;;3.65;3.30;;;26.00;99.90;;;26.63;84.24;97991.59;10462799;28;20213;-79
2023/08/13 15:17:44;;;;;;;3.90;3.60;;;25.90;99.90;;;26.49;85.05;97982.00;10460463;28;20237;-80
2023/08/13 15:22:49;;;;;;;3.80;3.50;;;25.90;99.90;;;26.68;84.09;97964.47;10459461;28;20225;-78
2023/08/13 15:27:53;;;;;;;3.72;3.42;;;26.00;99.90;;;26.93;81.95;97954.72;10464067;28;20237;-80
2023/08/13 15:32:56;;;;;;;5.28;4.07;;;26.20;99.90;;;26.78;83.11;97957.41;10461400;28;20244;-80
2023/08/13 15:38:01;;;;;;;4.68;4.10;;;26.10;99.90;;;26.78;79.75;97954.78;10457978;28;20291;-80
2023/08/13 15:43:04;;;;;;;4.55;4.15;;;26.20;99.90;;;26.95;81.54;97952.94;10459246;28;20216;-80
2023/08/13 15:48:08;;;;;;;4.65;4.13;;;26.30;99.90;;;27.40;77.39;97976.28;10461284;28;20302;-79
2023/08/13 15:53:13;;;;;;;4.80;4.40;;;26.70;99.90;;;27.27;79.35;97970.25;10460282;28;20670;-79
2023/08/13 15:58:17;;;;;;;4.28;3.38;;;26.70;99.90;;;27.55;75.00;97955.13;10452810;28;20256;-79
2023/08/13 16:03:20;;;;;;;3.35;3.08;;;26.90;99.90;;;27.33;76.86;97961.47;10462326;28;20236;-79
2023/08/13 16:08:25;;;;;;;4.18;3.40;;;26.60;99.90;;;27.35;76.04;97955.28;10462485;28;20216;-79
2023/08/13 16:13:29;;;;;;;4.55;3.75;;;26.60;99.90;;;27.16;76.97;97970.34;10457862;28;20240;-78
2023/08/13 16:18:33;;;;;;;5.05;4.53;;;26.40;99.90;;;27.03;77.55;97980.88;10461424;28;20232;-80
2023/08/13 16:23:38;;;;;;;4.75;4.35;;;26.30;99.90;;;27.26;74.67;97959.75;10456267;28;20788;-79
2023/08/13 16:28:41;;;;;;;3.25;2.95;;;26.30;99.90;;;26.99;77.21;97987.06;10462988;28;20288;-79
2023/08/13 16:33:45;;;;;;;3.33;3.08;;;26.20;99.90;;;26.87;78.78;97966.97;10451687;28;20449;-79
2023/08/13 16:38:50;;;;;;;3.03;2.83;;;26.10;99.90;;;26.80;80.44;97942.56;10451530;28;20240;-79
2023/08/13 16:43:54;;;;;;;3.40;3.10;;;26.00;99.90;;;26.96;76.43;97941.56;10445969;28;20283;-78
2023/08/13 16:48:57;;;;;;;3.47;3.20;;;26.10;99.90;;;26.60;79.75;97936.56;10453245;28;20228;-78
2023/08/13 16:54:02;;;;;;;3.35;3.15;;;25.90;99.90;;;26.25;83.32;97955.91;10442630;28;20280;-81
2023/08/13 16:59:05;;;;;;;3.85;3.63;;;25.70;99.90;;;26.07;90.19;97972.59;10448398;28;20236;-80
2023/08/13 17:04:09;;;;;;;4.30;4.00;;;25.50;99.90;;;25.82;92.21;97983.09;10441611;28;20259;-78
2023/08/13 17:09:13;;;;;;;3.60;3.30;;;25.30;99.90;;;25.75;96.66;97964.75;10445854;28;21548;-78
2023/08/13 17:14:17;;;;;;;4.85;3.53;;;25.10;99.90;;;25.67;97.36;97967.41;10452123;28;20332;-77
2023/08/13 17:19:24;;;;;;;4.43;4.05;;;25.00;99.90;;;25.67;97.51;97982.22;10453263;28;20312;-78
2023/08/13 17:24:28;;;;;;;4.15;3.75;;;24.90;99.90;;;25.51;98.12;97977.00;10447335;28;20256;-79
2023/08/13 17:29:32;;;;;;;4.28;3.97;;;24.80;99.90;;;25.53;99.43;97970.03;10446648;28;20243;-80
2023/08/13 17:34:35;;;;;;;4.07;3.75;;;24.90;99.90;;;25.55;99.99;97962.16;10442144;28;20255;-78
2023/08/13 17:39:40;;;;;;;4.25;3.95;;;24.80;99.90;;;25.49;99.64;97963.03;10451274;28;20308;-78
2023/08/13 17:44:43;;;;;;;4.75;4.35;;;24.70;99.90;;;25.40;100.00;97963.91;10447901;28;20250;-78
2023/08/13 17:49:47;;;;;;;4.95;4.45;;;24.70;99.90;;;25.31;100.00;97968.28;10456288;28;20606;-78
2023/08/13 17:54:51;;;;;;;5.03;4.63;;;24.50;99.90;;;25.27;100.00;97961.31;10461208;28;20637;-78
2023/08/13 17:59:55;;;;;;;4.28;3.97;;;24.40;99.90;;;25.16;100.00;97951.69;10467306;28;20294;-79
2023/08/13 18:04:58;;;;;;;4.72;4.35;;;24.30;99.90;;;25.13;100.00;97964.75;10456719;28;20233;-80
2023/08/13 18:10:03;;;;;;;5.28;4.78;;;24.20;99.90;;;25.03;100.00;97959.50;10458124;28;20293;-80
2023/08/13 18:15:07;;;;;;;5.57;5.18;;;24.10;99.90;;;24.93;100.00;97958.63;10460215;28;20216;-80
2023/08/13 18:20:11;;;;;;;5.00;4.60;;;24.00;99.90;;;24.82;100.00;97952.50;10455925;28;20240;-79
2023/08/13 18:25:16;;;;;;;5.00;4.57;;;24.00;99.90;;;24.60;100.00;97960.28;10456350;28;20696;-80
2023/08/13 18:30:20;;;;;;;5.35;4.95;;;23.80;99.90;;;24.52;100.00;97955.91;10457273;28;20228;-78
2023/08/13 18:35:23;;;;;;;5.00;4.50;;;23.70;99.90;;;24.40;100.00;97969.75;10453986;28;20221;-80
2023/08/13 18:40:28;;;;;;;5.43;5.00;;;23.50;99.90;;;24.31;100.00;97965.38;10452861;28;20305;-79
2023/08/13 18:45:31;;;;;;;5.03;4.72;;;23.50;99.90;;;24.22;100.00;97963.59;10452775;28;20216;-80
2023/08/13 18:50:34;;;;;;;6.53;5.22;;;23.40;99.90;;;24.19;100.00;97966.19;10458192;28;20248;-79
2023/08/13 18:55:40;;;;;;;4.82;4.45;;;23.40;99.90;;;24.11;100.00;97980.97;10458270;28;20245;-80
2023/08/13 19:00:44;;;;;;;6.10;5.50;;;23.30;99.90;;;23.98;100.00;97981.75;10452844;28;21260;-79
2023/08/13 19:05:48;;;;;;;5.65;5.25;;;23.20;99.90;;;23.88;100.00;97993.00;10439745;28;20251;-79
2023/08/13 19:10:58;;;;;;;5.90;5.38;;;23.10;99.90;;;23.79;100.00;98001.66;10444748;28;21117;-79
2023/08/13 19:16:01;;;;;;;5.95;5.35;;;23.00;99.90;;;23.78;100.00;98011.22;10443915;28;20224;-78
2023/08/13 19:21:05;;;;;;;6.57;5.03;;;22.90;99.90;;;23.61;100.00;98002.38;10446146;28;20216;-81
2023/08/13 19:26:09;;;;;;;6.20;5.38;;;22.80;99.90;;;23.53;100.00;98019.72;10441833;28;20278;-77
2023/08/13 19:31:21;;;;;;;6.60;5.28;;;22.70;99.90;;;23.50;100.00;98019.69;10452188;28;20221;-78
2023/08/13 19:36:25;;;;;;;6.35;5.75;;;22.60;99.90;;;23.39;100.00;98012.63;10446766;28;20220;-81
2023/08/13 19:41:29;;;;;;;5.35;4.90;;;22.60;99.90;;;23.31;100.00;98022.13;10449444;28;20217;-77
2023/08/13 19:46:33;;;;;;;6.18;5.40;;;22.50;99.90;;;23.26;100.00;98031.63;10456709;28;20255;-77
2023/08/13 19:51:42;;;;;;;5.07;4.57;;;22.40;99.90;;;23.12;100.00;98022.78;10449355;28;20237;-78
2023/08/13 19:56:47;;;;;;;5.53;5.03;;;22.30;99.90;;;23.00;100.00;98017.47;10446017;28;20229;-77
2023/08/13 20:01:50;;;;;;;5.82;5.20;;;22.20;99.90;;;22.96;100.00;98013.09;10450166;28;20630;-78
2023/08/13 20:07:11;;;;;;;5.07;4.57;;;22.20;99.90;;;22.93;100.00;98001.72;10441061;28;20229;-77
2023/08/13 20:12:26;;;;;;;6.40;5.10;;;22.10;99.90;;;22.91;100.00;97994.75;10444342;28;20245;-78
2023/08/13 20:17:30;;;;;;;6.00;5.50;;;22.10;99.90;;;22.84;100.00;97996.41;10445204;28;20257;-80
2023/08/13 20:22:33;;;;;;;5.72;5.20;;;22.00;99.90;;;22.77;100.00;98002.41;10441827;28;20241;-79
2023/08/13 20:27:38;;;;;;;6.47;5.38;;;22.00;99.90;;;22.71;100.00;97997.13;10445620;28;20319;-79
2023/08/13 20:32:42;;;;;;;6.07;5.45;;;21.90;99.90;;;22.66;100.00;97998.81;10442926;28;20225;-80
2023/08/13 20:37:45;;;;;;;6.45;5.47;;;21.80;99.90;;;22.73;100.00;98000.66;10445076;28;20228;-81
2023/08/13 20:42:50;;;;;;;5.28;4.85;;;21.80;99.90;;;22.62;100.00;98004.84;10438960;28;20221;-79
2023/08/13 20:47:53;;;;;;;5.70;4.57;;;21.70;99.90;;;22.54;100.00;98011.69;10438291;28;20251;-81
2023/08/13 20:52:57;;;;;;;5.15;4.50;;;21.60;99.90;;;22.43;100.00;97999.44;10437893;28;20218;-80
2023/08/13 20:58:02;;;;;;;5.10;4.60;;;21.60;99.90;;;22.34;100.00;98007.13;10449685;28;20233;-81